createdAt,value
2018-04-24T11:16:19.657Z,868.14
2018-04-24T11:17:18.827Z,868.14
2018-04-24T11:19:13.140Z,868.15
2018-04-24T11:20:12.532Z,868.14
2018-04-24T11:22:06.071Z,868.12
2018-04-24T11:23:05.513Z,868.11
2018-04-24T11:24:59.458Z,868.10
2018-04-24T11:26:31.641Z,868.10
2018-04-24T11:27:31.306Z,868.11
2018-04-24T11:29:24.837Z,868.07
2018-04-24T11:30:25.116Z,868.07
2018-04-24T11:32:18.996Z,868.01
2018-04-24T11:33:18.016Z,868.05
2018-04-24T11:35:11.805Z,868.03
2018-04-24T11:36:11.702Z,868.01
2018-04-24T11:38:05.115Z,868.00
2018-04-24T11:39:41.006Z,868.01
2018-04-24T11:40:30.117Z,867.99
2018-04-24T11:41:29.338Z,868.00
2018-04-24T11:43:23.077Z,868.01
2018-04-24T11:44:22.684Z,868.02
2018-04-24T11:46:40.489Z,868.04
2018-04-24T11:47:39.764Z,868.00
2018-04-24T11:49:33.541Z,868.03
2018-04-24T11:50:33.491Z,868.01
2018-04-24T11:52:26.626Z,868.01
2018-04-24T11:53:27.044Z,867.97
2018-04-24T11:55:19.864Z,868.00
2018-04-24T11:56:19.839Z,868.00
2018-04-24T11:58:13.289Z,867.99
2018-04-24T11:59:13.203Z,868.00
2018-04-24T12:01:50.190Z,867.97
2018-04-24T12:02:50.110Z,867.97
2018-04-24T12:04:43.575Z,867.98
2018-04-24T12:05:43.782Z,867.96
2018-04-24T12:07:37.149Z,867.97
2018-04-24T12:08:37.163Z,867.95
2018-04-24T12:10:31.510Z,867.97
2018-04-24T12:11:31.598Z,867.97
2018-04-24T12:14:52.951Z,867.97
2018-04-24T12:15:53.251Z,867.97
2018-04-24T12:17:47.705Z,867.96
2018-04-24T12:18:47.274Z,867.96
2018-04-24T12:20:40.670Z,868.00
2018-04-24T12:21:40.625Z,868.00
2018-04-24T12:24:05.894Z,868.02
2018-04-24T12:25:05.493Z,868.03
2018-04-24T12:27:13.944Z,868.03
2018-04-24T12:28:13.391Z,868.07
2018-04-24T12:30:07.354Z,868.05
2018-04-24T12:31:07.065Z,868.06
2018-04-24T12:33:19.949Z,868.10
2018-04-24T12:34:19.956Z,868.05
2018-04-24T12:36:13.409Z,868.08
2018-04-24T12:37:13.263Z,868.09
2018-04-24T12:39:06.293Z,868.11
2018-04-24T12:40:06.630Z,868.13
2018-04-24T12:42:00.035Z,868.14
2018-04-24T12:42:59.627Z,868.12
2018-04-24T12:44:53.014Z,868.16
2018-04-24T12:45:52.979Z,868.16
2018-04-24T12:47:47.044Z,868.15
2018-04-24T12:48:46.664Z,868.13
2018-04-24T12:50:40.002Z,868.15
2018-04-24T12:51:40.102Z,868.15
2018-04-24T12:53:37.236Z,868.19
2018-04-24T12:54:33.016Z,868.16
2018-04-24T12:56:26.372Z,868.15
2018-04-24T12:57:26.685Z,868.17
2018-04-24T12:59:19.782Z,868.18
2018-04-24T13:00:19.708Z,868.21
2018-04-24T13:02:14.000Z,868.22
2018-04-24T13:03:13.052Z,868.20
2018-04-24T13:05:11.439Z,868.21
2018-04-24T13:06:10.908Z,868.22
2018-04-24T13:09:12.962Z,868.25
2018-04-24T13:10:13.025Z,868.32
2018-04-24T13:12:06.384Z,868.33
2018-04-24T13:13:06.338Z,868.29
2018-04-24T13:14:59.321Z,868.31
2018-04-24T13:15:59.318Z,868.32
2018-04-24T13:17:52.786Z,868.30
2018-04-24T13:18:52.983Z,868.30
2018-04-24T13:20:46.356Z,868.33
2018-04-24T13:21:46.003Z,868.30
2018-04-24T13:23:39.763Z,868.28
2018-04-24T13:24:39.345Z,868.29
2018-04-24T13:26:33.047Z,868.35
2018-04-24T13:27:32.690Z,868.29
2018-04-24T13:29:26.441Z,868.31
2018-04-24T13:30:26.037Z,868.31
2018-04-24T13:32:19.482Z,868.31
2018-04-24T13:33:19.388Z,868.31
2018-04-24T13:35:12.836Z,868.29
2018-04-24T13:36:13.082Z,868.26
2018-04-24T13:38:06.082Z,868.31
2018-04-24T13:39:06.078Z,868.29
2018-04-24T13:40:59.693Z,868.34
2018-04-24T13:41:59.763Z,868.32
2018-04-24T13:43:53.169Z,868.35
2018-04-24T13:44:52.791Z,868.33
2018-04-24T13:46:46.099Z,868.36
2018-04-24T13:47:45.628Z,868.40
2018-04-24T13:49:39.348Z,868.39
2018-04-24T13:50:38.973Z,868.34
2018-04-24T13:52:32.395Z,868.36
2018-04-24T13:53:32.318Z,868.36
2018-04-24T13:55:26.018Z,868.33
2018-04-24T13:56:25.662Z,868.35
2018-04-24T13:58:19.720Z,868.34
2018-04-24T13:59:19.373Z,868.30
2018-04-24T14:01:12.363Z,868.32
2018-04-24T14:02:12.714Z,868.31
2018-04-24T14:04:06.707Z,868.32
2018-04-24T14:05:06.093Z,868.28
2018-04-24T14:06:59.447Z,868.23
2018-04-24T14:07:59.368Z,868.26
2018-04-24T14:09:52.493Z,868.21
2018-04-24T14:10:52.754Z,868.23
2018-04-24T14:12:45.740Z,868.21
2018-04-24T14:13:45.731Z,868.22
2018-04-24T14:15:39.522Z,868.25
2018-04-24T14:16:39.073Z,868.24
2018-04-24T14:18:32.428Z,868.20
2018-04-24T14:19:32.418Z,868.19
2018-04-24T14:21:26.300Z,868.20
2018-04-24T14:22:25.764Z,868.18
2018-04-24T14:24:19.121Z,868.18
2018-04-24T14:25:19.113Z,868.16
2018-04-24T14:27:12.584Z,868.15
2018-04-24T14:28:12.455Z,868.16
2018-04-24T14:30:05.656Z,868.12
2018-04-24T14:31:05.320Z,868.14
2018-04-24T14:32:58.732Z,868.15
2018-04-24T14:33:59.062Z,868.14
2018-04-24T14:35:52.363Z,868.15
2018-04-24T14:36:52.354Z,868.18
2018-04-24T14:38:45.839Z,868.14
2018-04-24T14:39:45.352Z,868.14
2018-04-24T14:41:38.707Z,868.11
2018-04-24T14:42:38.761Z,868.13
2018-04-24T14:44:32.148Z,868.12
2018-04-24T14:45:32.369Z,868.10
2018-04-24T14:47:25.794Z,868.12
2018-04-24T14:48:25.388Z,868.11
2018-04-24T14:50:18.858Z,868.12
2018-04-24T14:51:18.733Z,868.09
2018-04-24T14:53:12.088Z,868.07
2018-04-24T14:54:12.075Z,868.05
2018-04-24T14:56:05.892Z,868.06
2018-04-24T14:57:05.424Z,868.03
2018-04-24T14:58:59.158Z,868.01
2018-04-24T14:59:58.766Z,868.03
2018-04-24T15:01:52.220Z,867.96
2018-04-24T15:02:52.460Z,867.95
2018-04-24T15:04:45.796Z,867.95
2018-04-24T15:05:45.464Z,867.95
2018-04-24T15:07:39.291Z,867.96
2018-04-24T15:08:38.806Z,867.97
2018-04-24T15:10:32.161Z,867.90
2018-04-24T15:11:32.149Z,867.90
2018-04-24T15:13:26.215Z,867.90
2018-04-24T15:14:25.846Z,867.84
2018-04-24T15:16:19.175Z,867.83
2018-04-24T15:17:18.838Z,867.82
2018-04-24T15:19:12.418Z,867.81
2018-04-24T15:20:12.186Z,867.84
2018-04-24T15:22:05.541Z,867.82
2018-04-24T15:23:05.560Z,867.79
2018-04-24T15:24:58.984Z,867.82
2018-04-24T15:25:58.872Z,867.82
2018-04-24T15:27:52.556Z,867.77
2018-04-24T15:28:52.221Z,867.81
2018-04-24T15:30:46.046Z,867.85
2018-04-24T15:31:45.918Z,867.82
2018-04-24T15:33:38.933Z,867.76
2018-04-24T15:34:39.294Z,867.77
2018-04-24T15:36:32.739Z,867.75
2018-04-24T15:37:32.591Z,867.78
2018-04-24T15:39:25.962Z,867.71
2018-04-24T15:40:25.608Z,867.74
2018-04-24T15:42:19.193Z,867.74
2018-04-24T15:43:19.319Z,867.73
2018-04-24T15:45:12.654Z,867.73
2018-04-24T15:46:12.664Z,867.71
2018-04-24T15:48:06.169Z,867.74
2018-04-24T15:49:05.648Z,867.79
2018-04-24T15:50:59.326Z,867.75
2018-04-24T15:51:58.992Z,867.72
2018-04-24T15:53:52.657Z,867.76
2018-04-24T15:54:52.772Z,867.76
2018-04-24T15:56:46.624Z,867.75
2018-04-24T15:57:46.046Z,867.72
2018-04-24T15:59:43.373Z,867.78
2018-04-24T16:00:39.023Z,867.77
2018-04-24T16:02:31.896Z,867.73
2018-04-24T16:03:32.232Z,867.72
2018-04-24T16:05:25.754Z,867.71
2018-04-24T16:06:25.594Z,867.65
2018-04-24T16:08:18.642Z,867.66
2018-04-24T16:09:18.903Z,867.68
2018-04-24T16:11:15.795Z,867.63
2018-04-24T16:12:12.246Z,867.57
2018-04-24T16:14:06.230Z,867.59
2018-04-24T16:15:05.661Z,867.60
2018-04-24T16:17:03.308Z,867.57
2018-04-24T16:17:58.607Z,867.58
2018-04-24T16:19:52.362Z,867.58
2018-04-24T16:20:51.951Z,867.55
2018-04-24T16:22:45.422Z,867.59
2018-04-24T16:23:45.645Z,867.56
2018-04-24T16:25:38.657Z,867.56
2018-04-24T16:26:38.649Z,867.57
2018-04-24T16:28:32.184Z,867.59
2018-04-24T16:29:32.001Z,867.59
2018-04-24T16:31:25.750Z,867.61
2018-04-24T16:32:25.704Z,867.62
2018-04-24T16:34:23.948Z,867.65
2018-04-24T16:35:18.685Z,867.61
2018-04-24T16:37:12.978Z,867.61
2018-04-24T16:38:12.033Z,867.62
2018-04-24T16:40:05.903Z,867.63
2018-04-24T16:41:05.455Z,867.59
2018-04-24T16:42:58.732Z,867.56
2018-04-24T16:43:59.086Z,867.58
2018-04-24T16:45:52.385Z,867.56
2018-04-24T16:46:52.066Z,867.54
2018-04-24T16:48:45.422Z,867.50
2018-04-24T16:49:45.798Z,867.54
2018-04-24T16:51:38.887Z,867.50
2018-04-24T16:52:39.104Z,867.50
2018-04-24T16:54:32.111Z,867.51
2018-04-24T16:55:32.133Z,867.47
2018-04-24T16:57:26.103Z,867.47
2018-04-24T16:58:25.791Z,867.44
2018-04-24T17:00:19.146Z,867.51
2018-04-24T17:01:19.117Z,867.48
2018-04-24T17:03:12.664Z,867.49
2018-04-24T17:04:12.140Z,867.49
2018-04-24T17:06:06.513Z,867.48
2018-04-24T17:07:05.846Z,867.51
2018-04-24T17:09:03.453Z,867.48
2018-04-24T17:09:59.189Z,867.44
2018-04-24T17:11:52.577Z,867.49
2018-04-24T17:12:52.540Z,867.46
2018-04-24T17:14:46.078Z,867.45
2018-04-24T17:15:45.516Z,867.48
2018-04-24T17:17:39.231Z,867.42
2018-04-24T17:18:39.222Z,867.40
2018-04-24T17:20:32.277Z,867.41
2018-04-24T17:21:32.203Z,867.40
2018-04-24T17:23:25.553Z,867.40
2018-04-24T17:24:25.893Z,867.38
2018-04-24T17:26:23.240Z,867.39
2018-04-24T17:27:18.892Z,867.38
2018-04-24T17:29:12.589Z,867.32
2018-04-24T17:30:12.235Z,867.35
2018-04-24T17:32:05.997Z,867.32
2018-04-24T17:33:05.576Z,867.33
2018-04-24T17:34:59.331Z,867.33
2018-04-24T17:35:58.924Z,867.33
2018-04-24T17:37:57.263Z,867.27
2018-04-24T17:38:52.269Z,867.27
2018-04-24T17:40:45.143Z,867.26
2018-04-24T17:41:45.129Z,867.22
2018-04-24T17:43:38.552Z,867.20
2018-04-24T17:44:38.874Z,867.16
2018-04-24T17:46:32.227Z,867.15
2018-04-24T17:47:32.194Z,867.13
2018-04-24T17:49:25.603Z,867.07
2018-04-24T17:50:25.166Z,867.10
2018-04-24T17:52:18.941Z,867.09
2018-04-24T17:53:18.511Z,867.09
2018-04-24T17:55:12.369Z,867.02
2018-04-24T17:56:11.856Z,867.04
2018-04-24T17:58:05.238Z,867.01
2018-04-24T17:59:05.200Z,866.99
2018-04-24T18:00:58.961Z,867.02
2018-04-24T18:01:58.889Z,867.01
2018-04-24T18:03:52.263Z,867.04
2018-04-24T18:04:52.259Z,867.02
2018-04-24T18:06:45.357Z,866.96
2018-04-24T18:07:45.587Z,866.97
2018-04-24T18:09:38.589Z,866.96
2018-04-24T18:10:38.578Z,866.93
2018-04-24T18:12:36.621Z,866.92
2018-04-24T18:13:32.330Z,866.98
2018-04-24T18:15:25.319Z,866.96
2018-04-24T18:16:25.279Z,866.93
2018-04-24T18:18:19.163Z,866.87
2018-04-24T18:19:18.986Z,866.87
2018-04-24T18:21:12.305Z,866.89
2018-04-24T18:22:12.295Z,866.88
2018-04-24T18:24:09.142Z,866.79
2018-04-24T18:25:05.707Z,866.82
2018-04-24T18:26:58.668Z,866.79
2018-04-24T18:27:58.656Z,866.82
2018-04-24T18:29:52.458Z,866.74
2018-04-24T18:30:52.329Z,866.74
2018-04-24T18:32:45.354Z,866.71
2018-04-24T18:33:45.346Z,866.69
2018-04-24T18:35:38.892Z,866.68
2018-04-24T18:36:39.020Z,866.66
2018-04-24T18:38:32.044Z,866.66
2018-04-24T18:39:32.034Z,866.64
2018-04-24T18:41:29.973Z,866.63
2018-04-24T18:42:25.387Z,866.61
2018-04-24T18:44:18.744Z,866.63
2018-04-24T18:45:18.735Z,866.65
2018-04-24T18:47:12.618Z,866.61
2018-04-24T18:48:12.076Z,866.58
2018-04-24T18:50:05.428Z,866.58
2018-04-24T18:51:05.421Z,866.59
2018-04-24T18:52:58.983Z,866.55
2018-04-24T18:53:59.091Z,866.58
2018-04-24T18:55:51.999Z,866.56
2018-04-24T18:56:51.955Z,866.57
2018-04-24T18:58:45.169Z,866.53
2018-04-24T18:59:44.970Z,866.52
2018-04-24T19:01:38.669Z,866.54
2018-04-24T19:02:38.313Z,866.51
2018-04-24T19:04:32.231Z,866.51
2018-04-24T19:05:31.659Z,866.49
2018-04-24T19:07:25.014Z,866.46
2018-04-24T19:08:25.330Z,866.45
2018-04-24T19:10:18.473Z,866.47
2018-04-24T19:11:18.348Z,866.48
2018-04-24T19:13:11.718Z,866.43
2018-04-24T19:14:11.722Z,866.41
2018-04-24T19:16:05.135Z,866.45
2018-04-24T19:17:04.899Z,866.43
2018-04-24T19:18:58.534Z,866.42
2018-04-24T19:19:57.929Z,866.42
2018-04-24T19:21:51.319Z,866.36
2018-04-24T19:22:51.571Z,866.35
2018-04-24T19:24:44.996Z,866.37
2018-04-24T19:25:44.618Z,866.33
2018-04-24T19:27:39.167Z,866.30
2018-04-24T19:28:37.931Z,866.31
2018-04-24T19:30:31.631Z,866.33
2018-04-24T19:31:31.366Z,866.37
2018-04-24T19:33:25.343Z,866.32
2018-04-24T19:34:24.971Z,866.34
2018-04-24T19:36:17.979Z,866.31
2018-04-24T19:37:18.312Z,866.32
2018-04-24T19:39:12.036Z,866.31
2018-04-24T19:40:11.311Z,866.29
2018-04-24T19:42:04.758Z,866.29
2018-04-24T19:43:04.652Z,866.28
2018-04-24T19:44:58.562Z,866.30
2018-04-24T19:45:58.009Z,866.34
2018-04-24T19:47:51.363Z,866.32
2018-04-24T19:48:51.718Z,866.29
2018-04-24T19:50:45.179Z,866.32
2018-04-24T19:51:44.697Z,866.30
2018-04-24T19:53:38.053Z,866.31
2018-04-24T19:54:38.044Z,866.31
2018-04-24T19:56:31.524Z,866.32
2018-04-24T19:57:31.385Z,866.29
2018-04-24T19:59:24.658Z,866.32
2018-04-24T20:00:24.597Z,866.33
2018-04-24T20:02:18.228Z,866.35
2018-04-24T20:03:17.595Z,866.32
2018-04-24T20:05:10.952Z,866.33
2018-04-24T20:06:11.303Z,866.32
2018-04-24T20:08:04.395Z,866.33
2018-04-24T20:09:04.614Z,866.37
2018-04-24T20:10:58.008Z,866.33
2018-04-24T20:11:57.955Z,866.32
2018-04-24T20:13:51.046Z,866.31
2018-04-24T20:14:50.976Z,866.32
2018-04-24T20:16:44.327Z,866.35
2018-04-24T20:17:44.679Z,866.35
2018-04-24T20:19:38.161Z,866.31
2018-04-24T20:20:37.667Z,866.31
2018-04-24T20:22:31.380Z,866.32
2018-04-24T20:23:31.003Z,866.28
2018-04-24T20:25:24.454Z,866.26
2018-04-24T20:26:24.351Z,866.29
2018-04-24T20:28:18.101Z,866.31
2018-04-24T20:29:17.696Z,866.28
2018-04-24T20:31:10.995Z,866.25
2018-04-24T20:32:10.555Z,866.31
2018-04-24T20:34:03.915Z,866.26
2018-04-24T20:35:04.265Z,866.24
2018-04-24T20:36:57.737Z,866.27
2018-04-24T20:37:57.594Z,866.28
2018-04-24T20:39:51.092Z,866.30
2018-04-24T20:40:50.919Z,866.26
2018-04-24T20:42:44.063Z,866.24
2018-04-24T20:43:43.937Z,866.29
2018-04-24T20:45:37.292Z,866.28
2018-04-24T20:46:37.280Z,866.32
2018-04-24T20:48:31.636Z,866.31
2018-04-24T20:49:30.632Z,866.36
2018-04-24T20:51:23.988Z,866.35
2018-04-24T20:52:23.978Z,866.32
2018-04-24T20:54:17.603Z,866.29
2018-04-24T20:55:17.355Z,866.31
2018-04-24T20:57:10.677Z,866.31
2018-04-24T20:58:10.667Z,866.31
2018-04-24T21:00:04.263Z,866.29
2018-04-24T21:01:04.048Z,866.30
2018-04-24T21:02:57.821Z,866.29
2018-04-24T21:03:56.906Z,866.29
2018-04-24T21:05:50.648Z,866.28
2018-04-24T21:06:50.590Z,866.26
2018-04-24T21:08:43.923Z,866.23
2018-04-24T21:09:43.889Z,866.20
2018-04-24T21:11:37.611Z,866.19
2018-04-24T21:12:37.254Z,866.21
2018-04-24T21:14:30.263Z,866.19
2018-04-24T21:15:30.618Z,866.22
2018-04-24T21:17:24.095Z,866.22
2018-04-24T21:18:23.950Z,866.24
2018-04-24T21:20:17.311Z,866.23
2018-04-24T21:21:17.287Z,866.23
2018-04-24T21:23:10.508Z,866.28
2018-04-24T21:24:10.686Z,866.24
2018-04-24T21:26:04.040Z,866.23
2018-04-24T21:27:04.001Z,866.22
2018-04-24T21:28:57.777Z,866.23
2018-04-24T21:29:56.976Z,866.21
2018-04-24T21:31:50.327Z,866.20
2018-04-24T21:32:50.716Z,866.22
2018-04-24T21:34:44.328Z,866.25
2018-04-24T21:35:43.676Z,866.27
2018-04-24T21:37:37.029Z,866.23
2018-04-24T21:38:37.370Z,866.22
2018-04-24T21:40:30.558Z,866.20
2018-04-24T21:41:30.363Z,866.25
2018-04-24T21:43:24.312Z,866.23
2018-04-24T21:44:24.068Z,866.23
2018-04-24T21:46:17.180Z,866.19
2018-04-24T21:47:17.048Z,866.21
2018-04-24T21:49:10.782Z,866.20
2018-04-24T21:50:10.766Z,866.22
2018-04-24T21:52:04.538Z,866.20
2018-04-24T21:53:03.747Z,866.21
2018-04-24T21:54:57.197Z,866.24
2018-04-24T21:55:57.454Z,866.21
2018-04-24T21:57:50.561Z,866.23
2018-04-24T21:58:50.436Z,866.25
2018-04-24T22:00:43.791Z,866.18
2018-04-24T22:01:44.184Z,866.16
2018-04-24T22:03:37.588Z,866.18
2018-04-24T22:04:37.132Z,866.17
2018-04-24T22:06:30.487Z,866.22
2018-04-24T22:07:30.804Z,866.20
2018-04-24T22:09:23.946Z,866.21
2018-04-24T22:10:23.826Z,866.20
2018-04-24T22:12:17.539Z,866.17
2018-04-24T22:13:17.165Z,866.19
2018-04-24T22:15:11.070Z,866.18
2018-04-24T22:16:10.873Z,866.15
2018-04-24T22:18:04.190Z,866.15
2018-04-24T22:19:04.182Z,866.21
2018-04-24T22:20:57.637Z,866.16
2018-04-24T22:21:57.564Z,866.15
2018-04-24T22:23:51.148Z,866.13
2018-04-24T22:24:50.545Z,866.16
2018-04-24T22:26:44.527Z,866.18
2018-04-24T22:27:43.893Z,866.17
2018-04-24T22:29:37.837Z,866.22
2018-04-24T22:30:37.233Z,866.21
2018-04-24T22:32:30.813Z,866.25
2018-04-24T22:33:30.586Z,866.21
2018-04-24T22:35:23.945Z,866.18
2018-04-24T22:36:24.300Z,866.17
2018-04-24T22:38:17.398Z,866.16
2018-04-24T22:39:17.272Z,866.18
2018-04-24T22:41:10.956Z,866.16
2018-04-24T22:42:10.983Z,866.20
2018-04-24T22:44:04.549Z,866.17
2018-04-24T22:45:04.326Z,866.16
2018-04-24T22:46:57.331Z,866.21
2018-04-24T22:47:57.316Z,866.17
2018-04-24T22:49:51.741Z,866.27
2018-04-24T22:50:51.000Z,866.22
2018-04-24T22:52:44.475Z,866.31
2018-04-24T22:53:44.369Z,866.31
2018-04-24T22:55:37.572Z,866.28
2018-04-24T22:56:37.383Z,866.27
2018-04-24T22:58:31.035Z,866.22
2018-04-24T22:59:30.692Z,866.23
2018-04-24T23:01:24.113Z,866.25
2018-04-24T23:02:24.040Z,866.24
2018-04-24T23:04:17.395Z,866.26
2018-04-24T23:05:17.387Z,866.25
2018-04-24T23:07:11.204Z,866.26
2018-04-24T23:08:10.733Z,866.26
2018-04-24T23:10:04.088Z,866.28
2018-04-24T23:11:04.475Z,866.30
2018-04-24T23:12:57.559Z,866.26
2018-04-24T23:13:57.790Z,866.29
2018-04-24T23:15:51.127Z,866.27
2018-04-24T23:16:51.174Z,866.24
2018-04-24T23:18:44.364Z,866.23
2018-04-24T23:19:44.482Z,866.24
2018-04-24T23:21:37.474Z,866.22
2018-04-24T23:22:37.463Z,866.29
2018-04-24T23:24:31.528Z,866.30
2018-04-24T23:25:30.812Z,866.28
2018-04-24T23:27:24.168Z,866.32
2018-04-24T23:28:24.155Z,866.33
2018-04-24T23:30:18.095Z,866.33
2018-04-24T23:31:17.862Z,866.31
2018-04-24T23:33:11.457Z,866.32
2018-04-24T23:34:11.208Z,866.37
2018-04-24T23:36:04.415Z,866.34
2018-04-24T23:37:04.589Z,866.31
2018-04-24T23:38:57.888Z,866.40
2018-04-24T23:39:57.899Z,866.44
2018-04-24T23:41:51.098Z,866.62
2018-04-24T23:42:51.224Z,866.70
2018-04-24T23:44:44.081Z,866.83
2018-04-24T23:45:43.744Z,866.82
2018-04-24T23:47:37.488Z,866.68
2018-04-24T23:48:37.416Z,866.55
2018-04-24T23:50:31.034Z,866.37
2018-04-24T23:51:30.431Z,866.35
2018-04-24T23:53:23.994Z,866.59
2018-04-24T23:54:23.772Z,866.68
2018-04-24T23:56:18.064Z,866.68
2018-04-24T23:57:17.483Z,866.58
2018-04-24T23:59:11.163Z,866.58
